sensor_id;sensor_type;location;lat;lon;timestamp;pressure;altitude;pressure_sealevel;temperature;humidity
25084;BME280;13075;55.682;37.564;2022-12-07T00:03:48;100738.50;;;-6.50;100.00
25084;BME280;13075;55.682;37.564;2022-12-07T00:06:14;100730.88;;;-6.54;100.00
25084;BME280;13075;55.682;37.564;2022-12-07T00:08:41;100731.94;;;-6.58;100.00
25084;BME280;13075;55.682;37.564;2022-12-07T00:11:09;100728.50;;;-6.59;100.00
25084;BME280;13075;55.682;37.564;2022-12-07T00:13:36;100724.19;;;-6.60;100.00
25084;BME280;13075;55.682;37.564;2022-12-07T00:16:10;100740.75;;;-6.62;100.00
25084;BME280;13075;55.682;37.564;2022-12-07T00:18:36;100733.06;;;-6.65;100.00
25084;BME280;13075;55.682;37.564;2022-12-07T00:21:04;100739.91;;;-6.63;100.00
25084;BME280;13075;55.682;37.564;2022-12-07T00:23:29;100731.44;;;-6.68;100.00
25084;BME280;13075;55.682;37.564;2022-12-07T00:25:55;100740.19;;;-6.69;100.00
25084;BME280;13075;55.682;37.564;2022-12-07T00:28:21;100746.28;;;-6.70;100.00
25084;BME280;13075;55.682;37.564;2022-12-07T00:30:47;100737.59;;;-6.69;100.00
25084;BME280;13075;55.682;37.564;2022-12-07T00:33:12;100729.91;;;-6.72;100.00
25084;BME280;13075;55.682;37.564;2022-12-07T00:35:38;100725.66;;;-6.74;100.00
25084;BME280;13075;55.682;37.564;2022-12-07T00:38:03;100733.34;;;-6.71;100.00
25084;BME280;13075;55.682;37.564;2022-12-07T00:40:29;100736.94;;;-6.74;100.00
25084;BME280;13075;55.682;37.564;2022-12-07T00:42:55;100737.09;;;-6.78;100.00
25084;BME280;13075;55.682;37.564;2022-12-07T00:45:20;100732.69;;;-6.76;100.00
25084;BME280;13075;55.682;37.564;2022-12-07T00:47:46;100720.81;;;-6.83;100.00
25084;BME280;13075;55.682;37.564;2022-12-07T00:50:11;100741.91;;;-6.89;100.00
25084;BME280;13075;55.682;37.564;2022-12-07T00:52:37;100746.16;;;-6.88;100.00
25084;BME280;13075;55.682;37.564;2022-12-07T00:55:03;100731.53;;;-6.91;100.00
25084;BME280;13075;55.682;37.564;2022-12-07T00:57:30;100734.31;;;-6.96;100.00
25084;BME280;13075;55.682;37.564;2022-12-07T00:59:55;100737.78;;;-6.95;100.00
25084;BME280;13075;55.682;37.564;2022-12-07T01:02:23;100751.38;;;-6.88;100.00
25084;BME280;13075;55.682;37.564;2022-12-07T01:04:48;100740.25;;;-6.92;100.00
25084;BME280;13075;55.682;37.564;2022-12-07T01:07:14;100735.84;;;-6.90;100.00
25084;BME280;13075;55.682;37.564;2022-12-07T01:09:40;100738.44;;;-6.90;100.00
25084;BME280;13075;55.682;37.564;2022-12-07T01:12:05;100731.50;;;-6.89;100.00
25084;BME280;13075;55.682;37.564;2022-12-07T01:14:31;100735.72;;;-6.87;100.00
25084;BME280;13075;55.682;37.564;2022-12-07T01:16:57;100740.00;;;-6.86;100.00
25084;BME280;13075;55.682;37.564;2022-12-07T01:19:22;100736.94;;;-6.96;100.00
25084;BME280;13075;55.682;37.564;2022-12-07T01:21:48;100729.19;;;-6.97;100.00
25084;BME280;13075;55.682;37.564;2022-12-07T01:24:13;100739.44;;;-6.94;100.00
25084;BME280;13075;55.682;37.564;2022-12-07T01:26:39;100724.16;;;-7.02;100.00
25084;BME280;13075;55.682;37.564;2022-12-07T01:29:05;100730.09;;;-6.98;100.00
25084;BME280;13075;55.682;37.564;2022-12-07T01:31:31;100726.06;;;-7.05;100.00
25084;BME280;13075;55.682;37.564;2022-12-07T01:33:58;100718.06;;;-7.01;100.00
25084;BME280;13075;55.682;37.564;2022-12-07T01:38:55;100720.66;;;-7.01;100.00
25084;BME280;13075;55.682;37.564;2022-12-07T01:41:23;100722.59;;;-7.06;100.00
25084;BME280;13075;55.682;37.564;2022-12-07T01:44:25;100722.72;;;-7.09;100.00
25084;BME280;13075;55.682;37.564;2022-12-07T01:46:55;100715.00;;;-7.10;100.00
25084;BME280;13075;55.682;37.564;2022-12-07T01:49:43;100720.41;;;-7.16;100.00
25084;BME280;13075;55.682;37.564;2022-12-07T01:52:31;100704.63;;;-7.12;100.00
25084;BME280;13075;55.682;37.564;2022-12-07T01:55:01;100713.69;;;-7.22;100.00
25084;BME280;13075;55.682;37.564;2022-12-07T01:57:29;100713.66;;;-7.20;100.00
25084;BME280;13075;55.682;37.564;2022-12-07T01:59:56;100715.53;;;-7.24;100.00
25084;BME280;13075;55.682;37.564;2022-12-07T02:02:26;100693.88;;;-7.24;100.00
25084;BME280;13075;55.682;37.564;2022-12-07T02:04:53;100706.16;;;-7.28;100.00
25084;BME280;13075;55.682;37.564;2022-12-07T02:07:22;100711.94;;;-7.21;100.00
25084;BME280;13075;55.682;37.564;2022-12-07T02:09:48;100712.84;;;-7.22;100.00
25084;BME280;13075;55.682;37.564;2022-12-07T02:12:14;100704.28;;;-7.24;100.00
25084;BME280;13075;55.682;37.564;2022-12-07T02:14:40;100704.47;;;-7.29;100.00
25084;BME280;13075;55.682;37.564;2022-12-07T02:17:21;100701.31;;;-7.37;100.00
25084;BME280;13075;55.682;37.564;2022-12-07T02:20:02;100695.22;;;-7.36;100.00
25084;BME280;13075;55.682;37.564;2022-12-07T02:26:05;100692.97;;;-7.23;100.00
25084;BME280;13075;55.682;37.564;2022-12-07T02:30:47;100689.22;;;-7.16;100.00
25084;BME280;13075;55.682;37.564;2022-12-07T02:33:17;100684.09;;;-7.18;100.00
25084;BME280;13075;55.682;37.564;2022-12-07T02:35:57;100680.69;;;-7.20;100.00
25084;BME280;13075;55.682;37.564;2022-12-07T02:38:45;100690.78;;;-7.12;100.00
25084;BME280;13075;55.682;37.564;2022-12-07T02:41:33;100685.72;;;-7.15;100.00
25084;BME280;13075;55.682;37.564;2022-12-07T02:44:07;100685.66;;;-7.14;100.00
25084;BME280;13075;55.682;37.564;2022-12-07T02:46:42;100697.91;;;-7.17;100.00
25084;BME280;13075;55.682;37.564;2022-12-07T02:49:10;100691.66;;;-7.33;100.00
25084;BME280;13075;55.682;37.564;2022-12-07T02:51:41;100692.31;;;-7.28;100.00
25084;BME280;13075;55.682;37.564;2022-12-07T02:54:15;100695.16;;;-7.34;100.00
25084;BME280;13075;55.682;37.564;2022-12-07T02:59:25;100699.84;;;-7.44;100.00
25084;BME280;13075;55.682;37.564;2022-12-07T03:07:37;100681.88;;;-7.50;100.00
25084;BME280;13075;55.682;37.564;2022-12-07T03:10:31;100690.47;;;-7.48;100.00
25084;BME280;13075;55.682;37.564;2022-12-07T03:13:12;100686.13;;;-7.47;100.00
25084;BME280;13075;55.682;37.564;2022-12-07T03:18:16;100701.50;;;-7.65;100.00
25084;BME280;13075;55.682;37.564;2022-12-07T03:20:44;100693.66;;;-7.63;100.00
25084;BME280;13075;55.682;37.564;2022-12-07T03:23:12;100705.00;;;-7.66;100.00
25084;BME280;13075;55.682;37.564;2022-12-07T03:25:45;100689.50;;;-7.67;100.00
25084;BME280;13075;55.682;37.564;2022-12-07T03:28:15;100687.44;;;-7.59;100.00
25084;BME280;13075;55.682;37.564;2022-12-07T03:33:48;100694.56;;;-7.64;100.00
25084;BME280;13075;55.682;37.564;2022-12-07T03:36:22;100682.13;;;-7.56;100.00
25084;BME280;13075;55.682;37.564;2022-12-07T03:39:30;100691.63;;;-7.55;100.00
25084;BME280;13075;55.682;37.564;2022-12-07T03:41:47;100681.63;;;-7.66;100.00
25084;BME280;13075;55.682;37.564;2022-12-07T03:44:15;100687.59;;;-7.64;100.00
25084;BME280;13075;55.682;37.564;2022-12-07T03:46:52;100692.94;;;-7.67;100.00
25084;BME280;13075;55.682;37.564;2022-12-07T03:49:30;100686.22;;;-7.72;100.00
25084;BME280;13075;55.682;37.564;2022-12-07T03:54:45;100687.41;;;-7.81;100.00
25084;BME280;13075;55.682;37.564;2022-12-07T03:57:13;100686.50;;;-7.80;100.00
25084;BME280;13075;55.682;37.564;2022-12-07T03:59:39;100687.41;;;-7.81;100.00
25084;BME280;13075;55.682;37.564;2022-12-07T04:02:07;100685.69;;;-7.82;100.00
25084;BME280;13075;55.682;37.564;2022-12-07T04:04:34;100666.69;;;-7.82;100.00
25084;BME280;13075;55.682;37.564;2022-12-07T04:06:59;100683.34;;;-7.88;100.00
25084;BME280;13075;55.682;37.564;2022-12-07T04:09:26;100671.81;;;-7.81;100.00
25084;BME280;13075;55.682;37.564;2022-12-07T04:11:51;100677.22;;;-7.87;100.00
25084;BME280;13075;55.682;37.564;2022-12-07T04:14:17;100681.34;;;-7.81;100.00
25084;BME280;13075;55.682;37.564;2022-12-07T04:19:15;100678.06;;;-7.85;100.00
25084;BME280;13075;55.682;37.564;2022-12-07T04:21:41;100682.66;;;-7.93;100.00
25084;BME280;13075;55.682;37.564;2022-12-07T04:24:07;100686.22;;;-7.95;100.00
25084;BME280;13075;55.682;37.564;2022-12-07T04:26:33;100684.72;;;-8.02;100.00
25084;BME280;13075;55.682;37.564;2022-12-07T04:28:58;100676.13;;;-8.03;100.00
25084;BME280;13075;55.682;37.564;2022-12-07T04:31:24;100663.16;;;-8.03;100.00
25084;BME280;13075;55.682;37.564;2022-12-07T04:33:50;100676.06;;;-8.01;100.00
25084;BME280;13075;55.682;37.564;2022-12-07T04:36:15;100674.13;;;-7.96;100.00
25084;BME280;13075;55.682;37.564;2022-12-07T04:38:41;100661.38;;;-8.02;100.00
25084;BME280;13075;55.682;37.564;2022-12-07T04:41:08;100668.28;;;-8.01;100.00
25084;BME280;13075;55.682;37.564;2022-12-07T04:43:34;100666.56;;;-8.02;100.00
25084;BME280;13075;55.682;37.564;2022-12-07T04:46:01;100671.75;;;-8.02;100.00
25084;BME280;13075;55.682;37.564;2022-12-07T04:48:27;100663.94;;;-8.01;100.00
25084;BME280;13075;55.682;37.564;2022-12-07T04:50:53;100658.94;;;-8.07;100.00
25084;BME280;13075;55.682;37.564;2022-12-07T04:53:19;100668.28;;;-8.01;100.00
25084;BME280;13075;55.682;37.564;2022-12-07T04:55:45;100669.72;;;-7.94;100.00
25084;BME280;13075;55.682;37.564;2022-12-07T04:58:12;100670.13;;;-8.05;100.00
25084;BME280;13075;55.682;37.564;2022-12-07T05:00:38;100675.28;;;-8.03;100.00
25084;BME280;13075;55.682;37.564;2022-12-07T05:03:03;100670.94;;;-8.03;100.00
25084;BME280;13075;55.682;37.564;2022-12-07T05:05:29;100675.56;;;-8.11;100.00
25084;BME280;13075;55.682;37.564;2022-12-07T05:07:55;100663.47;;;-8.12;100.00
25084;BME280;13075;55.682;37.564;2022-12-07T05:10:20;100672.97;;;-8.11;100.00
25084;BME280;13075;55.682;37.564;2022-12-07T05:12:46;100673.69;;;-8.07;100.00
25084;BME280;13075;55.682;37.564;2022-12-07T05:15:12;100670.19;;;-8.06;100.00
25084;BME280;13075;55.682;37.564;2022-12-07T05:17:38;100673.53;;;-8.03;100.00
25084;BME280;13075;55.682;37.564;2022-12-07T05:20:04;100679.69;;;-8.05;100.00
25084;BME280;13075;55.682;37.564;2022-12-07T05:22:30;100676.16;;;-8.04;100.00
25084;BME280;13075;55.682;37.564;2022-12-07T05:24:55;100678.66;;;-8.01;100.00
25084;BME280;13075;55.682;37.564;2022-12-07T05:27:21;100673.84;;;-8.12;100.00
25084;BME280;13075;55.682;37.564;2022-12-07T05:29:47;100667.50;;;-8.03;100.00
25084;BME280;13075;55.682;37.564;2022-12-07T05:32:14;100676.91;;;-8.01;100.00
25084;BME280;13075;55.682;37.564;2022-12-07T05:34:40;100666.03;;;-8.10;100.00
25084;BME280;13075;55.682;37.564;2022-12-07T05:37:05;100675.28;;;-8.03;100.00
25084;BME280;13075;55.682;37.564;2022-12-07T05:39:31;100671.25;;;-8.12;100.00
25084;BME280;13075;55.682;37.564;2022-12-07T05:41:56;100665.00;;;-8.06;100.00
25084;BME280;13075;55.682;37.564;2022-12-07T05:44:40;100655.47;;;-8.06;100.00
25084;BME280;13075;55.682;37.564;2022-12-07T05:47:06;100675.31;;;-8.05;100.00
25084;BME280;13075;55.682;37.564;2022-12-07T05:49:32;100669.16;;;-8.02;100.00
25084;BME280;13075;55.682;37.564;2022-12-07T05:51:58;100673.34;;;-7.98;100.00
25084;BME280;13075;55.682;37.564;2022-12-07T05:54:24;100674.50;;;-8.05;100.00
25084;BME280;13075;55.682;37.564;2022-12-07T05:56:50;100663.94;;;-8.01;100.00
25084;BME280;13075;55.682;37.564;2022-12-07T05:59:15;100671.53;;;-7.96;100.00
25084;BME280;13075;55.682;37.564;2022-12-07T06:01:52;100673.25;;;-7.95;100.00
25084;BME280;13075;55.682;37.564;2022-12-07T06:04:18;100660.41;;;-8.00;100.00
25084;BME280;13075;55.682;37.564;2022-12-07T06:06:44;100673.19;;;-7.94;100.00
25084;BME280;13075;55.682;37.564;2022-12-07T06:09:09;100654.03;;;-7.91;100.00
25084;BME280;13075;55.682;37.564;2022-12-07T06:11:35;100669.78;;;-7.96;100.00
25084;BME280;13075;55.682;37.564;2022-12-07T06:14:20;100671.81;;;-8.04;100.00
25084;BME280;13075;55.682;37.564;2022-12-07T06:16:45;100663.97;;;-8.02;100.00
25084;BME280;13075;55.682;37.564;2022-12-07T06:19:11;100668.19;;;-8.00;100.00
25084;BME280;13075;55.682;37.564;2022-12-07T06:21:37;100660.19;;;-7.94;100.00
25084;BME280;13075;55.682;37.564;2022-12-07T06:24:02;100665.84;;;-8.06;100.00
25084;BME280;13075;55.682;37.564;2022-12-07T06:26:28;100654.59;;;-7.83;100.00
25084;BME280;13075;55.682;37.564;2022-12-07T06:28:54;100666.53;;;-7.78;100.00
25084;BME280;13075;55.682;37.564;2022-12-07T06:31:19;100668.47;;;-7.84;100.00
25084;BME280;13075;55.682;37.564;2022-12-07T06:33:45;100663.28;;;-7.84;100.00
25084;BME280;13075;55.682;37.564;2022-12-07T06:36:11;100672.03;;;-7.87;100.00
25084;BME280;13075;55.682;37.564;2022-12-07T06:38:37;100660.69;;;-7.84;100.00
25084;BME280;13075;55.682;37.564;2022-12-07T06:41:03;100646.59;;;-7.77;100.00
25084;BME280;13075;55.682;37.564;2022-12-07T06:43:28;100665.97;;;-7.86;100.00
25084;BME280;13075;55.682;37.564;2022-12-07T06:45:54;100662.78;;;-7.94;100.00
25084;BME280;13075;55.682;37.564;2022-12-07T06:48:20;100681.31;;;-8.03;100.00
25084;BME280;13075;55.682;37.564;2022-12-07T06:50:46;100681.06;;;-7.97;100.00
25084;BME280;13075;55.682;37.564;2022-12-07T06:53:11;100678.03;;;-8.08;100.00
25084;BME280;13075;55.682;37.564;2022-12-07T06:55:37;100662.75;;;-7.92;100.00
25084;BME280;13075;55.682;37.564;2022-12-07T06:58:02;100663.34;;;-7.86;100.00
25084;BME280;13075;55.682;37.564;2022-12-07T07:00:28;100664.66;;;-7.74;100.00
25084;BME280;13075;55.682;37.564;2022-12-07T07:02:54;100666.75;;;-7.84;100.00
25084;BME280;13075;55.682;37.564;2022-12-07T07:05:20;100670.13;;;-7.82;100.00
25084;BME280;13075;55.682;37.564;2022-12-07T07:07:49;100663.00;;;-7.77;100.00
25084;BME280;13075;55.682;37.564;2022-12-07T07:10:15;100677.22;;;-7.87;100.00
25084;BME280;13075;55.682;37.564;2022-12-07T07:12:40;100679.53;;;-8.02;100.00
25084;BME280;13075;55.682;37.564;2022-12-07T07:15:06;100673.19;;;-7.94;100.00
25084;BME280;13075;55.682;37.564;2022-12-07T07:17:32;100671.63;;;-7.98;100.00
25084;BME280;13075;55.682;37.564;2022-12-07T07:19:58;100672.97;;;-7.88;100.00
25084;BME280;13075;55.682;37.564;2022-12-07T07:22:23;100669.16;;;-7.79;100.00
25084;BME280;13075;55.682;37.564;2022-12-07T07:24:49;100670.56;;;-7.71;100.00
25084;BME280;13075;55.682;37.564;2022-12-07T07:27:14;100664.41;;;-7.68;100.00
25084;BME280;13075;55.682;37.564;2022-12-07T07:29:40;100669.59;;;-7.68;100.00
25084;BME280;13075;55.682;37.564;2022-12-07T07:32:06;100657.66;;;-7.72;100.00
25084;BME280;13075;55.682;37.564;2022-12-07T07:34:33;100662.47;;;-7.63;100.00
25084;BME280;13075;55.682;37.564;2022-12-07T07:36:58;100671.88;;;-7.59;100.00
25084;BME280;13075;55.682;37.564;2022-12-07T07:39:24;100665.34;;;-7.47;100.00
25084;BME280;13075;55.682;37.564;2022-12-07T07:41:50;100640.63;;;-7.57;100.00
25084;BME280;13075;55.682;37.564;2022-12-07T07:44:23;100652.34;;;-7.47;100.00
25084;BME280;13075;55.682;37.564;2022-12-07T07:46:49;100653.88;;;-7.42;100.00
25084;BME280;13075;55.682;37.564;2022-12-07T07:49:14;100653.97;;;-7.45;100.00
25084;BME280;13075;55.682;37.564;2022-12-07T07:51:40;100644.38;;;-7.43;100.00
25084;BME280;13075;55.682;37.564;2022-12-07T07:54:05;100636.41;;;-7.38;100.00
25084;BME280;13075;55.682;37.564;2022-12-07T07:56:31;100648.28;;;-7.33;100.00
25084;BME280;13075;55.682;37.564;2022-12-07T07:58:56;100643.16;;;-7.34;100.00
25084;BME280;13075;55.682;37.564;2022-12-07T08:01:22;100645.47;;;-7.27;100.00
25084;BME280;13075;55.682;37.564;2022-12-07T08:03:48;100645.88;;;-7.37;100.00
25084;BME280;13075;55.682;37.564;2022-12-07T08:06:14;100642.84;;;-7.27;100.00
25084;BME280;13075;55.682;37.564;2022-12-07T08:08:39;100646.19;;;-7.23;100.00
25084;BME280;13075;55.682;37.564;2022-12-07T08:11:06;100639.59;;;-7.32;100.00
25084;BME280;13075;55.682;37.564;2022-12-07T08:13:32;100637.97;;;-7.34;100.00
25084;BME280;13075;55.682;37.564;2022-12-07T08:15:58;100635.28;;;-7.33;100.00
25084;BME280;13075;55.682;37.564;2022-12-07T08:18:24;100631.56;;;-7.26;100.00
25084;BME280;13075;55.682;37.564;2022-12-07T08:20:49;100623.59;;;-7.01;100.00
25084;BME280;13075;55.682;37.564;2022-12-07T08:23:15;100622.91;;;-7.05;100.00
25084;BME280;13075;55.682;37.564;2022-12-07T08:25:40;100627.25;;;-7.05;100.00
25084;BME280;13075;55.682;37.564;2022-12-07T08:28:06;100643.31;;;-6.96;100.00
25084;BME280;13075;55.682;37.564;2022-12-07T08:30:33;100633.00;;;-7.19;100.00
25084;BME280;13075;55.682;37.564;2022-12-07T08:32:59;100634.56;;;-7.15;100.00
25084;BME280;13075;55.682;37.564;2022-12-07T08:35:24;100628.53;;;-7.15;100.00
25084;BME280;13075;55.682;37.564;2022-12-07T08:37:51;100627.50;;;-7.11;100.00
25084;BME280;13075;55.682;37.564;2022-12-07T08:40:16;100631.59;;;-7.06;100.00
25084;BME280;13075;55.682;37.564;2022-12-07T08:42:48;100623.41;;;-6.97;100.00
25084;BME280;13075;55.682;37.564;2022-12-07T08:45:15;100620.22;;;-7.03;100.00
25084;BME280;13075;55.682;37.564;2022-12-07T08:47:53;100618.03;;;-6.92;100.00
25084;BME280;13075;55.682;37.564;2022-12-07T08:50:19;100607.56;;;-6.90;100.00
25084;BME280;13075;55.682;37.564;2022-12-07T08:52:50;100614.13;;;-6.82;100.00
25084;BME280;13075;55.682;37.564;2022-12-07T08:55:18;100608.00;;;-6.81;100.00
25084;BME280;13075;55.682;37.564;2022-12-07T08:57:44;100605.88;;;-6.71;100.00
25084;BME280;13075;55.682;37.564;2022-12-07T09:00:10;100586.63;;;-6.87;100.00
25084;BME280;13075;55.682;37.564;2022-12-07T09:02:36;100600.16;;;-6.79;100.00
25084;BME280;13075;55.682;37.564;2022-12-07T09:05:02;100600.06;;;-6.78;100.00
25084;BME280;13075;55.682;37.564;2022-12-07T09:07:30;100598.56;;;-6.83;100.00
25084;BME280;13075;55.682;37.564;2022-12-07T09:09:58;100586.72;;;-6.70;100.00
25084;BME280;13075;55.682;37.564;2022-12-07T09:12:23;100585.06;;;-6.71;100.00
25084;BME280;13075;55.682;37.564;2022-12-07T09:14:49;100590.91;;;-6.66;100.00
25084;BME280;13075;55.682;37.564;2022-12-07T09:17:14;100581.66;;;-6.73;100.00
25084;BME280;13075;55.682;37.564;2022-12-07T09:19:40;100577.94;;;-6.68;100.00
25084;BME280;13075;55.682;37.564;2022-12-07T09:22:07;100583.53;;;-6.57;100.00
25084;BME280;13075;55.682;37.564;2022-12-07T09:24:33;100584.31;;;-6.55;100.00
25084;BME280;13075;55.682;37.564;2022-12-07T09:26:59;100571.41;;;-6.38;100.00
25084;BME280;13075;55.682;37.564;2022-12-07T09:29:25;100565.91;;;-6.32;100.00
25084;BME280;13075;55.682;37.564;2022-12-07T09:31:51;100560.31;;;-6.22;100.00
25084;BME280;13075;55.682;37.564;2022-12-07T09:34:17;100556.13;;;-6.26;100.00
25084;BME280;13075;55.682;37.564;2022-12-07T09:36:42;100553.53;;;-6.26;100.00
25084;BME280;13075;55.682;37.564;2022-12-07T09:39:08;100561.06;;;-6.20;100.00
25084;BME280;13075;55.682;37.564;2022-12-07T09:41:38;100557.47;;;-6.18;100.00
25084;BME280;13075;55.682;37.564;2022-12-07T09:44:06;100552.41;;;-6.21;100.00
25084;BME280;13075;55.682;37.564;2022-12-07T09:46:36;100550.38;;;-6.14;100.00
25084;BME280;13075;55.682;37.564;2022-12-07T09:49:03;100558.47;;;-6.20;100.00
25084;BME280;13075;55.682;37.564;2022-12-07T09:51:28;100546.91;;;-6.34;100.00
25084;BME280;13075;55.682;37.564;2022-12-07T09:53:56;100547.13;;;-6.38;100.00
25084;BME280;13075;55.682;37.564;2022-12-07T09:56:23;100541.44;;;-6.27;100.00
25084;BME280;13075;55.682;37.564;2022-12-07T09:58:53;100541.59;;;-6.12;100.00
25084;BME280;13075;55.682;37.564;2022-12-07T10:01:21;100551.44;;;-6.18;100.00
25084;BME280;13075;55.682;37.564;2022-12-07T10:04:14;100534.47;;;-6.27;100.00
25084;BME280;13075;55.682;37.564;2022-12-07T10:06:41;100538.41;;;-6.00;100.00
25084;BME280;13075;55.682;37.564;2022-12-07T10:09:12;100529.38;;;-6.11;100.00
25084;BME280;13075;55.682;37.564;2022-12-07T10:12:10;100535.44;;;-6.11;100.00
25084;BME280;13075;55.682;37.564;2022-12-07T10:14:40;100526.31;;;-6.19;100.00
25084;BME280;13075;55.682;37.564;2022-12-07T10:20:18;100521.22;;;-6.04;100.00
25084;BME280;13075;55.682;37.564;2022-12-07T10:22:55;100521.75;;;-6.14;100.00
25084;BME280;13075;55.682;37.564;2022-12-07T10:25:22;100529.47;;;-6.13;100.00
25084;BME280;13075;55.682;37.564;2022-12-07T10:30:24;100536.88;;;-6.22;100.00
25084;BME280;13075;55.682;37.564;2022-12-07T10:32:49;100527.31;;;-6.22;100.00
25084;BME280;13075;55.682;37.564;2022-12-07T10:35:22;100528.25;;;-6.06;100.00
25084;BME280;13075;55.682;37.564;2022-12-07T10:37:48;100525.47;;;-5.84;100.00
25084;BME280;13075;55.682;37.564;2022-12-07T10:40:34;100520.81;;;-5.95;100.00
25084;BME280;13075;55.682;37.564;2022-12-07T10:43:21;100518.69;;;-5.87;100.00
25084;BME280;13075;55.682;37.564;2022-12-07T10:51:49;100512.88;;;-6.10;100.00
25084;BME280;13075;55.682;37.564;2022-12-07T10:54:34;100501.19;;;-6.02;100.00
25084;BME280;13075;55.682;37.564;2022-12-07T10:57:10;100498.38;;;-6.16;100.00
25084;BME280;13075;55.682;37.564;2022-12-07T11:05:48;100499.72;;;-6.07;100.00
25084;BME280;13075;55.682;37.564;2022-12-07T11:10:55;100492.66;;;-6.24;100.00
25084;BME280;13075;55.682;37.564;2022-12-07T11:17:02;100490.06;;;-6.24;100.00
25084;BME280;13075;55.682;37.564;2022-12-07T11:22:23;100489.13;;;-6.40;100.00
25084;BME280;13075;55.682;37.564;2022-12-07T11:28:06;100479.09;;;-6.30;100.00
25084;BME280;13075;55.682;37.564;2022-12-07T11:39:27;100470.44;;;-6.50;100.00
25084;BME280;13075;55.682;37.564;2022-12-07T11:42:09;100480.31;;;-6.56;100.00
25084;BME280;13075;55.682;37.564;2022-12-07T11:48:03;100456.94;;;-6.58;100.00
25084;BME280;13075;55.682;37.564;2022-12-07T11:50:36;100464.84;;;-6.59;100.00
25084;BME280;13075;55.682;37.564;2022-12-07T11:53:10;100464.47;;;-6.52;100.00
25084;BME280;13075;55.682;37.564;2022-12-07T11:56:03;100451.91;;;-6.61;100.00
25084;BME280;13075;55.682;37.564;2022-12-07T11:58:53;100451.91;;;-6.61;100.00
25084;BME280;13075;55.682;37.564;2022-12-07T12:06:40;100437.69;;;-6.72;100.00
25084;BME280;13075;55.682;37.564;2022-12-07T12:09:12;100451.66;;;-6.75;100.00
25084;BME280;13075;55.682;37.564;2022-12-07T12:17:15;100439.91;;;-6.83;100.00
25084;BME280;13075;55.682;37.564;2022-12-07T12:19:59;100434.06;;;-6.88;100.00
25084;BME280;13075;55.682;37.564;2022-12-07T12:25:04;100434.63;;;-7.01;100.00
25084;BME280;13075;55.682;37.564;2022-12-07T12:27:33;100435.34;;;-6.97;100.00
25084;BME280;13075;55.682;37.564;2022-12-07T12:30:02;100432.94;;;-7.02;100.00
25084;BME280;13075;55.682;37.564;2022-12-07T12:32:44;100431.53;;;-7.09;100.00
25084;BME280;13075;55.682;37.564;2022-12-07T12:37:49;100437.19;;;-7.19;100.00
25084;BME280;13075;55.682;37.564;2022-12-07T12:47:57;100437.66;;;-7.30;100.00
25084;BME280;13075;55.682;37.564;2022-12-07T12:50:39;100436.69;;;-7.27;100.00
25084;BME280;13075;55.682;37.564;2022-12-07T12:53:20;100444.47;;;-7.27;100.00
25084;BME280;13075;55.682;37.564;2022-12-07T13:00:44;100434.25;;;-7.30;100.00
25084;BME280;13075;55.682;37.564;2022-12-07T13:03:27;100438.06;;;-7.39;100.00
25084;BME280;13075;55.682;37.564;2022-12-07T13:06:17;100431.16;;;-7.40;100.00
25084;BME280;13075;55.682;37.564;2022-12-07T13:08:43;100446.75;;;-7.40;100.00
25084;BME280;13075;55.682;37.564;2022-12-07T13:11:35;100429.63;;;-7.44;100.00
25084;BME280;13075;55.682;37.564;2022-12-07T13:17:10;100421.75;;;-7.42;100.00
25084;BME280;13075;55.682;37.564;2022-12-07T13:24:58;100435.69;;;-7.43;100.00
25084;BME280;13075;55.682;37.564;2022-12-07T13:27:25;100437.47;;;-7.45;100.00
25084;BME280;13075;55.682;37.564;2022-12-07T13:29:52;100407.91;;;-7.63;100.00
25084;BME280;13075;55.682;37.564;2022-12-07T13:32:28;100441.31;;;-7.54;100.00
25084;BME280;13075;55.682;37.564;2022-12-07T13:34:55;100430.97;;;-7.55;100.00
25084;BME280;13075;55.682;37.564;2022-12-07T13:37:28;100431.75;;;-7.53;100.00
25084;BME280;13075;55.682;37.564;2022-12-07T13:40:00;100440.59;;;-7.57;100.00
25084;BME280;13075;55.682;37.564;2022-12-07T13:42:31;100431.25;;;-7.62;100.00
25084;BME280;13075;55.682;37.564;2022-12-07T13:44:58;100403.97;;;-7.72;100.00
25084;BME280;13075;55.682;37.564;2022-12-07T13:47:44;100415.06;;;-7.68;100.00
25084;BME280;13075;55.682;37.564;2022-12-07T13:50:29;100425.72;;;-7.74;100.00
25084;BME280;13075;55.682;37.564;2022-12-07T13:52:57;100422.41;;;-7.78;100.00
25084;BME280;13075;55.682;37.564;2022-12-07T13:55:23;100420.72;;;-7.79;100.00
25084;BME280;13075;55.682;37.564;2022-12-07T13:57:51;100404.16;;;-7.76;100.00
25084;BME280;13075;55.682;37.564;2022-12-07T14:00:19;100423.06;;;-7.73;100.00
25084;BME280;13075;55.682;37.564;2022-12-07T14:03:04;100417.00;;;-7.73;100.00
25084;BME280;13075;55.682;37.564;2022-12-07T14:05:34;100415.16;;;-7.70;100.00
25084;BME280;13075;55.682;37.564;2022-12-07T14:16:01;100408.00;;;-7.85;100.00
25084;BME280;13075;55.682;37.564;2022-12-07T14:18:38;100416.69;;;-7.86;100.00
25084;BME280;13075;55.682;37.564;2022-12-07T14:21:28;100414.75;;;-7.81;100.00
25084;BME280;13075;55.682;37.564;2022-12-07T14:24:16;100409.63;;;-7.82;100.00
25084;BME280;13075;55.682;37.564;2022-12-07T14:26:49;100401.31;;;-7.90;100.00
25084;BME280;13075;55.682;37.564;2022-12-07T14:29:20;100409.09;;;-7.90;100.00
25084;BME280;13075;55.682;37.564;2022-12-07T14:31:45;100404.44;;;-7.82;100.00
25084;BME280;13075;55.682;37.564;2022-12-07T14:34:12;100390.66;;;-7.84;100.00
25084;BME280;13075;55.682;37.564;2022-12-07T14:36:38;100381.06;;;-7.82;100.00
25084;BME280;13075;55.682;37.564;2022-12-07T14:39:03;100394.88;;;-7.82;100.00